KSLO/SLO METAR and TAF weather

Enter ICAO airport designator
Station Type Date Time Source
KSLO METAR 2019/04/19 10:55 UTC NOAA

KSLO 191055Z AUTO 35011G18KT 10SM -RA OVC012 07/06 A2971 RMK AO2 P0001 T00710060


Station Type Date Time Source
KSLO Decoded METAR 2019/04/19 10:55 UTC NOAA

Salem, Salem-Leckrone Airport, IL, United States (KSLO) 38-38-34N 088-57-51W 174M
Apr 19, 2019 - 06:55 AM EDT / 2019.04.19 1055 UTC
Wind: from the N (350 degrees) at 13 MPH (11 KT) gusting to 21 MPH (18 KT):0
Visibility: 10 mile(s):0
Sky conditions: overcast
Weather: light rain
Precipitation last hour: 0.01 inches
Temperature: 44.8 F (7.1 C)
Dew Point: 42.8 F (6.0 C)
Relative Humidity: 92%
Pressure (altimeter): 29.71 in. Hg (1006 hPa)
ob: KSLO 191055Z AUTO 35011G18KT 10SM -RA OVC012 07/06 A2971 RMK AO2 P0001 T00710060
cycle: 11

Station Type Date Time Source
KSLO TAF UTC NOAA

Error!

Example: see airport list